createdAt,value
2019-01-21T00:01:43.545Z,8.70
2019-01-21T00:04:14.649Z,8.80
2019-01-21T00:06:45.973Z,8.80
2019-01-21T00:09:16.978Z,8.80
2019-01-21T00:11:51.674Z,9.00
2019-01-21T00:14:23.421Z,9.00
2019-01-21T00:16:54.497Z,8.80
2019-01-21T00:19:25.437Z,9.00
2019-01-21T00:21:56.617Z,8.90
2019-01-21T00:24:27.315Z,8.80
2019-01-21T00:26:58.423Z,8.80
2019-01-21T00:29:31.000Z,8.90
2019-01-21T00:32:02.337Z,8.80
2019-01-21T00:34:33.347Z,8.90
2019-01-21T00:37:04.608Z,8.80
2019-01-21T00:39:37.153Z,8.80
2019-01-21T00:42:08.380Z,8.70
2019-01-21T00:44:39.409Z,8.80
2019-01-21T00:47:10.608Z,8.70
2019-01-21T00:49:43.525Z,8.70
2019-01-21T00:52:14.528Z,8.90
2019-01-21T00:54:45.731Z,8.90
2019-01-21T00:57:17.023Z,8.90
2019-01-21T00:59:48.021Z,8.80
2019-01-21T01:02:18.935Z,8.80
2019-01-21T01:04:50.204Z,8.80
2019-01-21T01:07:21.351Z,8.80
2019-01-21T01:09:52.428Z,8.90
2019-01-21T01:12:24.122Z,8.90
2019-01-21T01:14:55.054Z,8.80
2019-01-21T01:17:26.075Z,8.80
2019-01-21T01:19:57.055Z,8.70
2019-01-21T01:22:27.724Z,8.70
2019-01-21T01:24:58.799Z,8.70
2019-01-21T01:27:29.984Z,8.70
2019-01-21T01:30:01.008Z,8.70
2019-01-21T01:32:32.147Z,8.70
2019-01-21T01:35:03.258Z,8.70
2019-01-21T01:37:34.594Z,8.80
2019-01-21T01:40:06.988Z,8.70
2019-01-21T01:42:38.136Z,8.80
2019-01-21T01:45:10.386Z,8.80
2019-01-21T01:47:44.852Z,8.60
2019-01-21T01:50:14.633Z,8.70
2019-01-21T01:52:45.685Z,8.70
2019-01-21T01:55:16.755Z,8.70
2019-01-21T01:57:49.030Z,8.60
2019-01-21T02:00:20.507Z,8.70
2019-01-21T02:02:51.578Z,8.60
2019-01-21T02:05:22.726Z,8.60
2019-01-21T02:07:53.927Z,8.60
2019-01-21T02:10:24.847Z,8.60
2019-01-21T02:12:56.124Z,8.70
2019-01-21T02:15:28.988Z,8.70
2019-01-21T02:18:00.238Z,8.70
2019-01-21T02:20:30.982Z,8.80
2019-01-21T02:23:05.572Z,8.80
2019-01-21T02:25:51.018Z,8.90
2019-01-21T02:28:36.428Z,8.80
2019-01-21T02:31:35.935Z,8.80
2019-01-21T02:34:33.883Z,8.90
2019-01-21T02:37:41.409Z,8.90
2019-01-21T02:40:46.650Z,8.70
2019-01-21T02:44:00.172Z,8.60
2019-01-21T02:47:13.758Z,8.70
2019-01-21T02:50:40.758Z,8.70
2019-01-21T02:53:45.031Z,8.70
2019-01-21T02:56:45.227Z,8.70
2019-01-21T02:59:32.503Z,8.70
2019-01-21T03:02:47.682Z,8.70
2019-01-21T03:06:02.231Z,8.60
2019-01-21T03:09:07.677Z,8.50
2019-01-21T03:12:22.310Z,8.50
2019-01-21T03:15:23.457Z,8.50
2019-01-21T03:18:21.613Z,8.50
2019-01-21T03:21:30.288Z,8.50
2019-01-21T03:24:39.232Z,8.40
2019-01-21T03:27:34.995Z,8.50
2019-01-21T03:30:51.922Z,8.50
2019-01-21T03:34:27.549Z,8.40
2019-01-21T03:37:30.627Z,8.30
2019-01-21T03:40:57.761Z,8.40
2019-01-21T03:43:53.174Z,8.40
2019-01-21T03:46:59.255Z,8.40
2019-01-21T03:49:50.010Z,8.40
2019-01-21T03:53:07.391Z,8.50
2019-01-21T03:55:43.609Z,8.40
2019-01-21T03:59:13.691Z,8.40
2019-01-21T04:02:05.415Z,8.50
2019-01-21T04:05:16.906Z,8.40
2019-01-21T04:08:27.554Z,8.50
2019-01-21T04:11:45.032Z,8.60
2019-01-21T04:15:02.898Z,8.50
2019-01-21T04:18:04.487Z,8.50
2019-01-21T04:21:06.228Z,8.50
2019-01-21T04:23:56.382Z,8.40
2019-01-21T04:26:57.863Z,8.40
2019-01-21T04:30:15.302Z,8.40
2019-01-21T04:33:39.280Z,8.40
2019-01-21T04:36:35.062Z,8.50
2019-01-21T04:39:22.454Z,8.50
2019-01-21T04:42:26.468Z,8.60
2019-01-21T04:45:23.077Z,8.50
2019-01-21T04:48:40.948Z,8.60
2019-01-21T04:51:36.777Z,8.50
2019-01-21T04:54:35.565Z,8.60
2019-01-21T04:57:37.080Z,8.60
2019-01-21T05:00:35.776Z,8.50
2019-01-21T05:04:08.579Z,8.50
2019-01-21T05:07:07.991Z,8.50
2019-01-21T05:10:24.561Z,8.50
2019-01-21T05:13:36.028Z,8.50
2019-01-21T05:16:33.568Z,8.60
2019-01-21T05:19:47.099Z,8.60
2019-01-21T05:22:36.828Z,8.60
2019-01-21T05:25:36.865Z,8.50
2019-01-21T05:28:36.911Z,8.50
2019-01-21T05:31:50.643Z,8.50
2019-01-21T05:34:57.259Z,8.50
2019-01-21T05:37:48.575Z,8.50
2019-01-21T05:41:09.663Z,8.50
2019-01-21T05:44:31.405Z,8.50
2019-01-21T05:47:51.324Z,8.50
2019-01-21T05:50:55.485Z,8.50
2019-01-21T05:54:04.701Z,8.50
2019-01-21T05:57:06.448Z,8.50
2019-01-21T06:00:22.991Z,8.50
2019-01-21T06:03:28.300Z,8.40
2019-01-21T06:06:55.090Z,8.40
2019-01-21T06:10:25.084Z,8.30
2019-01-21T06:13:54.943Z,8.20
2019-01-21T06:17:04.037Z,8.10
2019-01-21T06:19:51.905Z,8.10
2019-01-21T06:23:18.804Z,8.10
2019-01-21T06:26:15.404Z,8.10
2019-01-21T06:29:20.543Z,8.20
2019-01-21T06:32:38.096Z,8.10
2019-01-21T06:36:11.266Z,8.10
2019-01-21T06:39:38.327Z,8.10
2019-01-21T06:43:01.861Z,8.10
2019-01-21T06:46:19.651Z,8.20
2019-01-21T06:49:31.378Z,8.20
2019-01-21T06:52:40.791Z,8.10
2019-01-21T06:55:33.802Z,8.10
2019-01-21T06:58:32.737Z,8.10
2019-01-21T07:01:45.515Z,8.20
2019-01-21T07:05:07.619Z,8.20
2019-01-21T07:08:06.297Z,8.20
2019-01-21T07:11:14.790Z,8.20
2019-01-21T07:14:14.752Z,8.20
2019-01-21T07:17:18.559Z,8.30
2019-01-21T07:20:29.644Z,8.30
2019-01-21T07:23:43.666Z,8.40
2019-01-21T07:26:55.602Z,8.50
2019-01-21T07:30:16.761Z,8.50
2019-01-21T07:33:30.753Z,8.50
2019-01-21T07:36:33.757Z,8.50
2019-01-21T07:40:03.645Z,8.40
2019-01-21T07:43:11.284Z,8.50
2019-01-21T07:46:06.909Z,8.50
2019-01-21T07:52:26.742Z,8.50
2019-01-21T07:55:14.980Z,8.40
2019-01-21T07:58:25.920Z,8.40
2019-01-21T08:01:42.530Z,8.40
2019-01-21T08:05:18.658Z,8.50
2019-01-21T08:08:08.182Z,8.50
2019-01-21T08:10:50.315Z,8.60
2019-01-21T08:14:04.939Z,8.70
2019-01-21T08:17:08.580Z,8.80
2019-01-21T08:20:25.416Z,8.80
2019-01-21T08:23:24.322Z,8.80
2019-01-21T08:26:18.549Z,8.70
2019-01-21T08:29:15.459Z,8.80
2019-01-21T08:32:01.782Z,8.80
2019-01-21T08:34:58.340Z,8.90
2019-01-21T08:37:59.103Z,8.90
2019-01-21T08:40:59.066Z,9.00
2019-01-21T08:44:20.056Z,8.90
2019-01-21T08:47:16.679Z,9.00
2019-01-21T08:50:10.715Z,9.00
2019-01-21T08:53:12.552Z,9.10
2019-01-21T08:56:09.500Z,9.20
2019-01-21T08:59:15.258Z,9.30
2019-01-21T09:02:35.146Z,9.40
2019-01-21T09:05:52.868Z,9.70
2019-01-21T09:09:14.134Z,9.90
2019-01-21T09:12:16.535Z,9.90
2019-01-21T09:15:20.119Z,9.90
2019-01-21T09:18:21.018Z,9.70
2019-01-21T09:21:37.508Z,9.60
2019-01-21T09:24:43.591Z,9.70
2019-01-21T09:27:39.720Z,9.70
2019-01-21T09:30:43.034Z,9.70
2019-01-21T09:34:03.975Z,9.70
2019-01-21T09:36:58.532Z,9.70
2019-01-21T09:40:07.769Z,9.70
2019-01-21T09:43:40.852Z,9.80
2019-01-21T09:46:45.213Z,9.80
2019-01-21T09:49:14.383Z,9.90
2019-01-21T09:52:05.174Z,10.00
2019-01-21T09:54:41.294Z,10.00
2019-01-21T09:57:21.755Z,10.20
2019-01-21T09:59:54.903Z,10.30
2019-01-21T10:02:44.793Z,10.40
2019-01-21T10:05:17.085Z,10.50
2019-01-21T10:08:21.727Z,10.50
2019-01-21T10:11:39.683Z,10.50
2019-01-21T10:14:56.761Z,10.50
2019-01-21T10:17:37.607Z,10.40
2019-01-21T10:20:59.858Z,10.20
2019-01-21T10:24:10.314Z,10.20
2019-01-21T10:27:09.981Z,10.30
2019-01-21T10:30:25.489Z,10.40
2019-01-21T10:33:52.651Z,10.60
2019-01-21T10:36:38.711Z,10.70
2019-01-21T10:39:35.826Z,10.70
2019-01-21T10:42:40.633Z,10.70
2019-01-21T10:46:01.756Z,10.90
2019-01-21T10:49:38.210Z,11.00
2019-01-21T10:52:37.630Z,11.10
2019-01-21T10:56:03.483Z,11.10
2019-01-21T10:58:44.992Z,11.20
2019-01-21T11:01:51.740Z,11.00
2019-01-21T11:04:55.410Z,10.90
2019-01-21T11:08:00.702Z,10.80
2019-01-21T11:11:05.331Z,10.80
2019-01-21T11:14:18.249Z,10.70
2019-01-21T11:17:27.068Z,10.80
2019-01-21T11:20:23.226Z,11.00
2019-01-21T11:23:03.432Z,11.10
2019-01-21T11:26:29.468Z,10.90
2019-01-21T11:29:47.470Z,11.00
2019-01-21T11:33:05.239Z,11.00
2019-01-21T11:36:25.946Z,11.00
2019-01-21T11:39:43.678Z,11.00
2019-01-21T11:42:47.659Z,11.00
2019-01-21T11:45:51.103Z,11.10
2019-01-21T11:49:09.138Z,11.10
2019-01-21T11:52:38.896Z,11.30
2019-01-21T11:55:54.260Z,11.30
2019-01-21T11:58:54.974Z,11.40
2019-01-21T12:02:04.201Z,11.40
2019-01-21T12:05:06.891Z,11.50
2019-01-21T12:08:09.493Z,11.50
2019-01-21T12:11:06.212Z,11.50
2019-01-21T12:14:23.433Z,11.50
2019-01-21T12:17:34.486Z,11.70
2019-01-21T12:20:21.870Z,11.80
2019-01-21T12:23:28.663Z,11.70
2019-01-21T12:26:27.854Z,11.50
2019-01-21T12:29:35.038Z,11.50
2019-01-21T12:32:59.101Z,11.60
2019-01-21T12:35:54.428Z,11.80
2019-01-21T12:39:24.667Z,11.90
2019-01-21T12:42:23.512Z,11.90
2019-01-21T12:45:38.472Z,11.80
2019-01-21T12:48:31.614Z,11.80
2019-01-21T12:51:56.044Z,11.80
2019-01-21T12:55:23.279Z,11.80
2019-01-21T12:58:18.911Z,11.80
2019-01-21T13:01:23.235Z,12.00
2019-01-21T13:04:34.502Z,12.10
2019-01-21T13:07:51.152Z,12.30
2019-01-21T13:11:12.429Z,12.30
2019-01-21T13:14:24.945Z,12.30
2019-01-21T13:17:33.934Z,12.30
2019-01-21T13:20:34.536Z,12.30
2019-01-21T13:23:33.404Z,12.30
2019-01-21T13:26:48.019Z,12.30
2019-01-21T13:29:52.970Z,12.30
2019-01-21T13:32:53.086Z,12.20
2019-01-21T13:35:53.354Z,12.20
2019-01-21T13:39:09.310Z,12.10
2019-01-21T13:42:02.253Z,12.20
2019-01-21T13:45:32.540Z,12.20
2019-01-21T13:48:47.772Z,12.10
2019-01-21T13:52:00.096Z,12.20
2019-01-21T13:55:12.835Z,12.40
2019-01-21T13:58:32.086Z,12.40
2019-01-21T14:01:53.208Z,12.40
2019-01-21T14:05:14.082Z,12.40
2019-01-21T14:08:27.976Z,12.40
2019-01-21T14:11:15.357Z,12.40
2019-01-21T14:14:18.017Z,12.30
2019-01-21T14:17:29.646Z,12.20
2019-01-21T14:20:34.077Z,12.20
2019-01-21T14:23:48.965Z,12.20
2019-01-21T14:27:02.980Z,12.10
2019-01-21T14:30:27.050Z,12.10
2019-01-21T14:33:22.011Z,12.20
2019-01-21T14:36:39.643Z,12.30
2019-01-21T14:39:39.656Z,12.30
2019-01-21T14:42:42.099Z,12.40
2019-01-21T14:45:59.276Z,12.60
2019-01-21T14:49:28.953Z,12.80
2019-01-21T14:52:46.770Z,13.40
2019-01-21T14:55:49.338Z,13.80
2019-01-21T14:59:07.094Z,14.60
2019-01-21T15:01:49.882Z,15.10
2019-01-21T15:04:48.366Z,15.50
2019-01-21T15:07:29.395Z,16.20
2019-01-21T15:10:42.797Z,16.70
2019-01-21T15:14:02.823Z,16.20
2019-01-21T15:17:21.566Z,16.00
2019-01-21T15:20:26.617Z,15.20
2019-01-21T15:23:38.677Z,14.10
2019-01-21T15:26:43.806Z,13.50
2019-01-21T15:30:04.752Z,13.30
2019-01-21T15:32:59.993Z,12.90
2019-01-21T15:35:56.055Z,12.80
2019-01-21T15:39:14.408Z,12.50
2019-01-21T15:42:16.891Z,12.20
2019-01-21T15:45:20.138Z,12.10
2019-01-21T15:48:14.539Z,11.90
2019-01-21T15:51:07.606Z,11.70
2019-01-21T15:54:10.477Z,11.50
2019-01-21T15:56:52.501Z,11.50
2019-01-21T16:00:10.129Z,11.50
2019-01-21T16:03:16.335Z,11.50
2019-01-21T16:06:20.777Z,11.40
2019-01-21T16:09:29.987Z,11.40
2019-01-21T16:12:20.871Z,11.30
2019-01-21T16:15:16.206Z,11.30
2019-01-21T16:18:22.449Z,11.20
2019-01-21T16:21:38.880Z,11.20
2019-01-21T16:24:53.891Z,11.30
2019-01-21T16:28:17.576Z,11.20
2019-01-21T16:31:25.070Z,11.20
2019-01-21T16:34:22.243Z,11.10
2019-01-21T16:37:20.066Z,11.10
2019-01-21T16:40:30.683Z,11.10
2019-01-21T16:43:01.999Z,11.00
2019-01-21T16:45:33.257Z,11.00
2019-01-21T16:48:04.795Z,11.00
2019-01-21T16:50:35.613Z,10.90
2019-01-21T16:53:07.131Z,10.90
2019-01-21T16:55:38.223Z,10.90
2019-01-21T16:58:09.494Z,10.90
2019-01-21T17:00:48.495Z,10.90
2019-01-21T17:03:20.222Z,10.90
2019-01-21T17:05:51.658Z,10.90
2019-01-21T17:08:23.004Z,10.90
2019-01-21T17:10:54.158Z,11.00
2019-01-21T17:13:26.575Z,11.10
2019-01-21T17:15:57.732Z,11.00
2019-01-21T17:18:28.639Z,10.90
2019-01-21T17:20:59.806Z,11.10
2019-01-21T17:23:30.890Z,11.10
2019-01-21T17:26:02.151Z,11.10
2019-01-21T17:28:33.059Z,11.10
2019-01-21T17:31:04.232Z,11.20
2019-01-21T17:33:35.109Z,11.20
2019-01-21T17:36:06.673Z,11.20
2019-01-21T17:38:37.615Z,11.20
2019-01-21T17:41:08.934Z,11.20
2019-01-21T17:43:40.199Z,11.30
2019-01-21T17:46:11.514Z,11.40
2019-01-21T17:48:42.746Z,11.40
2019-01-21T17:51:14.434Z,11.20
2019-01-21T17:53:51.202Z,11.10
2019-01-21T17:56:18.697Z,11.00
2019-01-21T17:58:50.184Z,10.90
2019-01-21T18:01:51.078Z,10.90
2019-01-21T18:04:22.168Z,11.10
2019-01-21T18:06:54.552Z,11.10
2019-01-21T18:09:25.596Z,11.00
2019-01-21T18:11:56.821Z,11.00
2019-01-21T18:14:27.876Z,11.00
2019-01-21T18:16:59.103Z,11.00
2019-01-21T18:19:30.148Z,11.00
2019-01-21T18:22:01.546Z,11.00
2019-01-21T18:24:32.775Z,11.00
2019-01-21T18:27:04.061Z,11.00
2019-01-21T18:29:35.137Z,11.00
2019-01-21T18:32:06.276Z,10.90
2019-01-21T18:34:36.984Z,10.90
2019-01-21T18:37:12.079Z,11.00
2019-01-21T18:39:43.468Z,11.00
2019-01-21T18:42:14.959Z,10.90
2019-01-21T18:44:46.349Z,11.00
2019-01-21T18:47:24.284Z,10.80
2019-01-21T18:49:55.791Z,10.80
2019-01-21T18:52:26.864Z,10.70
2019-01-21T18:54:57.897Z,10.70
2019-01-21T18:57:28.877Z,10.70
2019-01-21T18:59:59.951Z,10.80
2019-01-21T19:02:30.965Z,10.70
2019-01-21T19:05:02.508Z,10.70
2019-01-21T19:07:33.361Z,10.80
2019-01-21T19:10:12.689Z,10.70
2019-01-21T19:12:44.516Z,10.70
2019-01-21T19:15:19.031Z,10.70
2019-01-21T19:17:50.221Z,10.80
2019-01-21T19:20:21.446Z,10.70
2019-01-21T19:22:52.620Z,10.60
2019-01-21T19:25:23.785Z,10.60
2019-01-21T19:27:54.988Z,10.60
2019-01-21T19:30:27.487Z,10.60
2019-01-21T19:32:58.879Z,10.60
2019-01-21T19:35:32.438Z,10.60
2019-01-21T19:38:03.906Z,10.60
2019-01-21T19:40:34.672Z,10.60
2019-01-21T19:43:07.281Z,10.60
2019-01-21T19:45:38.569Z,10.70
2019-01-21T19:48:09.954Z,10.60
2019-01-21T19:50:41.114Z,10.70
2019-01-21T19:53:12.384Z,10.70
2019-01-21T19:55:44.848Z,10.60
2019-01-21T19:58:16.030Z,10.60
2019-01-21T20:00:47.433Z,10.60
2019-01-21T20:03:18.594Z,10.60
2019-01-21T20:05:49.665Z,10.70
2019-01-21T20:08:20.828Z,10.70
2019-01-21T20:10:52.290Z,10.70
2019-01-21T20:13:24.257Z,10.60
2019-01-21T20:15:55.441Z,10.60
2019-01-21T20:18:27.129Z,10.50
2019-01-21T20:20:58.509Z,10.50
2019-01-21T20:23:30.802Z,10.50
2019-01-21T20:26:02.016Z,11.30
2019-01-21T20:28:33.152Z,10.40
2019-01-21T20:31:04.433Z,10.40
2019-01-21T20:33:35.181Z,10.40
2019-01-21T20:36:06.311Z,10.50
2019-01-21T20:38:37.214Z,10.50
2019-01-21T20:41:08.414Z,10.60
2019-01-21T20:43:39.686Z,10.60
2019-01-21T20:46:11.091Z,10.50
2019-01-21T20:48:42.516Z,10.60
2019-01-21T20:51:13.568Z,10.70
2019-01-21T20:53:44.690Z,10.80
2019-01-21T20:56:25.413Z,10.80
2019-01-21T20:58:57.099Z,10.70
2019-01-21T21:01:28.667Z,10.70
2019-01-21T21:04:00.051Z,10.60
2019-01-21T21:06:30.837Z,10.60
2019-01-21T21:09:02.500Z,10.60
2019-01-21T21:11:33.158Z,10.70
2019-01-21T21:14:05.523Z,10.60
2019-01-21T21:16:36.780Z,10.70
2019-01-21T21:19:12.125Z,10.80
2019-01-21T21:21:43.903Z,10.70
2019-01-21T21:24:14.966Z,10.80
2019-01-21T21:26:45.860Z,10.90
2019-01-21T21:29:17.004Z,10.90
2019-01-21T21:31:48.304Z,10.80
2019-01-21T21:34:19.589Z,10.70
2019-01-21T21:55:15.332Z,10.70
2019-01-21T21:57:46.441Z,10.90
2019-01-21T22:00:19.927Z,10.80
2019-01-21T22:02:50.864Z,10.80
2019-01-21T22:05:22.150Z,10.90
2019-01-21T22:08:01.545Z,10.80
2019-01-21T22:10:33.566Z,10.80
2019-01-21T22:13:04.715Z,10.70
2019-01-21T22:15:35.575Z,10.70
2019-01-21T22:18:08.085Z,10.50
2019-01-21T22:20:38.777Z,10.50
2019-01-21T22:23:09.596Z,10.50
2019-01-21T22:25:40.338Z,10.50
2019-01-21T22:28:11.505Z,10.50
2019-01-21T22:30:42.656Z,10.50
2019-01-21T22:33:13.760Z,10.40
2019-01-21T22:35:45.281Z,10.30
2019-01-21T22:38:16.357Z,10.10
2019-01-21T22:40:48.431Z,10.10
2019-01-21T22:43:19.572Z,10.10
2019-01-21T22:45:50.517Z,10.10
2019-01-21T22:48:21.638Z,10.20
2019-01-21T22:50:52.798Z,10.10
2019-01-21T22:53:23.912Z,10.10
2019-01-21T22:55:55.682Z,10.10
2019-01-21T22:58:27.115Z,10.20
2019-01-21T23:01:23.552Z,10.20
2019-01-21T23:03:57.112Z,10.10
2019-01-21T23:06:28.724Z,10.10
2019-01-21T23:09:00.292Z,10.10
2019-01-21T23:11:32.039Z,10.00
2019-01-21T23:14:05.767Z,9.90
2019-01-21T23:16:36.740Z,9.80
2019-01-21T23:19:07.892Z,9.80
2019-01-21T23:21:39.821Z,9.80
2019-01-21T23:24:10.921Z,9.90
2019-01-21T23:26:41.751Z,9.90
2019-01-21T23:29:13.009Z,10.00
2019-01-21T23:31:48.748Z,10.00
2019-01-21T23:34:20.152Z,9.90
2019-01-21T23:36:51.347Z,10.00
2019-01-21T23:39:22.297Z,9.90
2019-01-21T23:41:53.439Z,9.90
2019-01-21T23:44:24.691Z,9.90
2019-01-21T23:46:55.669Z,9.90
2019-01-21T23:49:26.802Z,9.90
2019-01-21T23:51:58.002Z,9.70
2019-01-21T23:54:29.140Z,9.60
2019-01-21T23:57:00.381Z,9.60
2019-01-21T23:59:31.869Z,9.60
